Flight Track Log - Related Links

Times and Time Zones

All times are in EDT time to prevent confusion due to time zone crossing. See the AWE1940 flight status page for this flight to view local times or setup timezone preferences in your user account.

Time Position Orientation Groundspeed Altitude Reporting Facility
EDT Latitude Longitude Course Direction KTS MPH feet Rate Location/Type
Wed 06:43:01 PM 29.9506 -95.3378 90° East 194 223 900  Level Houston Center
Wed 06:44:20 PM 29.9039 -95.2764 131° Southeast 229 264 2,800 1,442 Climbing Houston Center
Wed 06:45:10 PM 29.8506 -95.2075 132° Southeast 293 337 4,000 1,607 Climbing Houston Center
Wed 06:46:00 PM 29.9834 -94.8024 90° East  Level FlightAware Approximate
Wed 06:46:12 PM 29.8061 -95.1361 126° Southeast 287 330 5,800  Level Houston Center
Wed 06:47:00 PM 29.9833 -94.6697 90° East  Level FlightAware Approximate
Wed 06:47:13 PM 29.8178 -95.0381 82° East 282 325 8,900  Level Houston Center
Wed 06:48:00 PM 29.9833 -94.5369 90° East  Level FlightAware Approximate
Wed 06:48:28 PM 29.8433 -94.9358 74° East 290 334 11,100  Level Houston Center
Wed 06:49:30 PM 29.8708 -94.8261 74° East 353 406 12,600 1,728 Climbing Houston Center
Wed 06:50:33 PM 29.8978 -94.7097 75° East 375 432 14,700 1,893 Climbing Houston Center
Wed 06:52:00 PM 29.9284 -94.5182 72° East  Level FlightAware Approximate
Wed 06:52:37 PM 29.9553 -94.4450 72° East 410 472 18,500  Level Houston Center
Wed 06:53:39 PM 29.9869 -94.3114 75° East 427 491 20,300 1,694 Climbing Houston Center
Wed 06:54:41 PM 30.0217 -94.1450 76° East 443 510 22,000 1,306 Climbing Houston Center
Wed 06:55:43 PM 30.0533 -93.9975 76° East 467 537 23,000 1,161 Climbing Houston Center
Wed 06:56:45 PM 30.0856 -93.8436 76° East 489 563 24,400 1,210 Climbing Houston Center
Wed 06:57:47 PM 30.1169 -93.6906 77° East 495 570 25,500 1,016 Climbing Houston Center
Wed 06:58:49 PM 30.1486 -93.5339 77° East 508 585 26,500 1,258 Climbing Houston Center
Wed 06:59:51 PM 30.1872 -93.3461 77° East 513 590 28,100 1,440 Climbing Houston Center
Wed 07:00:54 PM 30.2211 -93.1928 76° East 504 580 29,500 1,056 Climbing Houston Center
Wed 07:01:56 PM 30.2514 -93.0392 77° East 497 572 30,300 677 Climbing Houston Center
Wed 07:02:58 PM 30.2819 -92.8836 77° East 498 573 30,900 290 Climbing Houston Center
Wed 07:04:00 PM 30.3211 -92.6958 76° East 503 579 30,900  Level Houston Center
Wed 07:05:02 PM 30.3811 -92.5517 64° Northeast 502 578 30,900  Level Houston Center
Wed 07:06:04 PM 30.4444 -92.4106 62° Northeast 497 572 30,900 48 Level Houston Center
Wed 07:07:06 PM 30.5111 -92.2589 63° Northeast 498 573 31,000 48 Climbing Houston Center
Wed 07:08:08 PM 30.5744 -92.1167 63° Northeast 501 577 31,000  Level Houston Center
Wed 07:09:10 PM 30.6375 -91.9753 63° Northeast 498 573 31,000  Level Houston Center
Wed 07:10:12 PM 30.7000 -91.8328 63° Northeast 497 572 31,000  Level Houston Center
Wed 07:11:14 PM 30.7753 -91.6631 63° Northeast 496 571 31,000  Level Houston Center
Wed 07:12:17 PM 30.8353 -91.5214 64° Northeast 493 567 31,000  Level Houston Center
Wed 07:13:19 PM 30.8975 -91.3806 63° Northeast 491 565 31,000  Level Houston Center
Wed 07:14:21 PM 30.9239 -91.2261 79° East 492 566 31,000 -48 Level Houston Center
Wed 07:15:23 PM 30.9364 -91.0644 85° East 491 565 30,900 -48 Descending Houston Center
Wed 07:16:25 PM 30.9458 -90.9067 86° East 490 564 30,900  Level Houston Center
Wed 07:17:27 PM 30.9608 -90.7181 85° East 488 562 30,900  Level Houston Center
Wed 07:18:29 PM 30.9717 -90.5594 85° East 489 563 30,900  Level Houston Center
Wed 07:19:31 PM 30.9811 -90.4019 86° East 488 562 30,900  Level Houston Center
Wed 07:20:33 PM 30.9939 -90.2414 85° East 494 568 30,900  Level Houston Center
Wed 07:21:35 PM 31.0044 -90.0811 86° East 494 568 30,900  Level Houston Center
Wed 07:22:37 PM 31.0144 -89.9208 86° East 494 568 30,900  Level Houston Center
Wed 07:23:39 PM 31.0247 -89.7592 86° East 498 573 30,900  Level Houston Center
Wed 07:24:41 PM 31.0364 -89.5653 86° East 498 573 30,900  Level Houston Center
Wed 07:25:43 PM 31.0478 -89.4017 85° East 503 579 30,900  Level Houston Center
Wed 07:26:45 PM 31.0572 -89.2389 86° East 503 579 30,900  Level Houston Center
Wed 07:27:47 PM 31.0647 -89.0722 87° East 509 586 30,900 -97 Level Houston Center
Wed 07:28:49 PM 31.0731 -88.9111 87° East 505 581 30,700 -968 Descending Houston Center
Wed 07:29:51 PM 31.0814 -88.7489 87° East 502 578 28,900 -871 Descending Houston Center
Wed 07:30:53 PM 31.0931 -88.5831 85° East 507 583 28,900  Level Houston Center
Wed 07:31:55 PM 31.1497 -88.4036 70° East 506 582 28,900  Level Houston Center
Wed 07:32:57 PM 31.2392 -88.2736 51° Northeast 503 579 28,900  Level Houston Center
Wed 07:33:59 PM 31.3242 -88.1428 53° Northeast 500 575 28,900  Level Houston Center
Wed 07:35:01 PM 31.4094 -88.0117 53° Northeast 503 579 28,900  Level Houston Center
Wed 07:36:03 PM 31.4928 -87.8811 53° Northeast 499 574 28,900  Level Houston Center
Wed 07:37:05 PM 31.5772 -87.7508 53° Northeast 501 577 28,900  Level Houston Center
Wed 07:38:20 PM 31.6853 -87.5872 52° Northeast 499 574 28,900  Level Atlanta Center
Wed 07:39:20 PM 31.7703 -87.4586 52° Northeast 499 574 28,900  Level Atlanta Center
Wed 07:40:20 PM 31.8597 -87.3131 54° Northeast 499 574 28,900  Level Atlanta Center
Wed 07:41:20 PM 31.9425 -87.1814 53° Northeast 499 574 28,900  Level Atlanta Center
Wed 07:42:20 PM 32.0272 -87.0472 53° Northeast 499 574 28,900  Level Atlanta Center
Wed 07:43:20 PM 32.1117 -86.9153 53° Northeast 499 574 28,900  Level Atlanta Center
Wed 07:44:20 PM 32.1919 -86.7853 54° Northeast 499 574 28,900  Level Atlanta Center
Wed 07:45:20 PM 32.2739 -86.6672 51° Northeast 499 574 28,900  Level Atlanta Center
Wed 07:46:20 PM 32.3558 -86.5369 53° Northeast 499 574 28,900  Level Atlanta Center
Wed 07:47:20 PM 32.4419 -86.4067 52° Northeast 499 574 28,900  Level Atlanta Center
Wed 07:48:20 PM 32.4864 -86.2575 71° East 493 567 28,900 -150 Level Atlanta Center
Wed 07:49:20 PM 32.5433 -86.1061 66° East 486 559 28,600 -950 Descending Atlanta Center
Wed 07:50:20 PM 32.5917 -85.9544 69° East 486 559 27,000 -800 Descending Atlanta Center
Wed 07:51:20 PM 32.6419 -85.8050 68° East 486 559 27,000 -50 Level Atlanta Center
Wed 07:52:20 PM 32.6919 -85.6531 69° East 486 559 26,900 -50 Descending Atlanta Center
Wed 07:53:20 PM 32.7419 -85.5008 69° East 486 559 26,900  Level Atlanta Center
Wed 07:54:20 PM 32.7958 -85.3533 66° East 486 559 26,900  Level Atlanta Center
Wed 07:55:20 PM 32.8661 -85.2161 59° Northeast 486 559 26,900  Level Atlanta Center
Wed 07:56:20 PM 32.9383 -85.0586 61° Northeast 481 554 26,900  Level Atlanta Center
Wed 07:57:20 PM 33.0064 -84.9181 60° Northeast 486 559 26,900  Level Atlanta Center
Wed 07:58:20 PM 33.0656 -84.7925 61° Northeast 481 554 26,900 50 Level Atlanta Center
Wed 07:59:20 PM 33.1331 -84.6442 61° Northeast 487 560 27,000  Climbing Atlanta Center
Wed 08:00:20 PM 33.2069 -84.5081 57° Northeast 495 570 26,900 -50 Descending Atlanta Center
Wed 08:01:20 PM 33.3136 -84.3967 41° Northeast 487 560 26,900 -250 Level Atlanta Center
Wed 08:02:20 PM 33.4203 -84.2903 40° Northeast 497 572 26,400 -1,000 Descending Atlanta Center
Wed 08:03:20 PM 33.5269 -84.1783 41° Northeast 502 578 24,900 -750 Descending Atlanta Center
Wed 08:04:20 PM 33.6211 -84.0561 47° Northeast 497 572 24,900  Level Atlanta Center
Wed 08:05:20 PM 33.7150 -83.9289 48° Northeast 497 572 24,900  Level Atlanta Center
Wed 08:06:20 PM 33.8067 -83.8039 49° Northeast 497 572 24,900  Level Atlanta Center
Wed 08:07:20 PM 33.8961 -83.6758 50° Northeast 492 566 24,900  Level Atlanta Center
Wed 08:08:20 PM 33.9497 -83.5256 67° East 487 560 24,900  Level Atlanta Center
Wed 08:09:20 PM 33.9947 -83.3647 71° East 492 566 24,900  Level Atlanta Center
Wed 08:10:20 PM 34.0189 -83.1892 81° East 487 560 24,900  Level Atlanta Center
Wed 08:11:20 PM 34.0258 -83.0211 87° East 487 560 24,900 -300 Level Atlanta Center
Wed 08:12:20 PM 34.0328 -82.8531 87° East 494 568 24,300 -500 Descending Atlanta Center
Wed 08:13:20 PM 34.0456 -82.6925 84° East 494 568 23,900 -200 Descending Atlanta Center
Wed 08:14:20 PM 34.1003 -82.5436 66° East 481 554 23,900  Level Atlanta Center
Wed 08:15:20 PM 34.1486 -82.4122 66° East 473 544 23,900  Level Atlanta Center
Wed 08:16:20 PM 34.2072 -82.2656 64° Northeast 473 544 23,900 -300 Level Atlanta Center
Wed 08:17:20 PM 34.2739 -82.1208 61° Northeast 484 557 23,300 -1,700 Descending Atlanta Center
Wed 08:18:20 PM 34.3658 -82.0056 46° Northeast 479 551 20,500 -2,900 Descending Atlanta Center
Wed 08:19:20 PM 34.4619 -81.8847 46° Northeast 461 531 17,500 -2,917 Descending Atlanta Center
Wed 08:20:09 PM 34.5314 -81.7997 45° Northeast 436 502 15,200 -2,700 Descending Atlanta Center
Wed 08:21:20 PM 34.6231 -81.6811 47° Northeast 424 488 12,100 -1,511 Descending Atlanta Center
Wed 08:22:20 PM 34.7006 -81.5881 45° Northeast 399 459 11,900 -100 Descending Atlanta Center
Wed 08:23:20 PM 34.7758 -81.4897 47° Northeast 384 442 11,900 -51 Level Atlanta Center
Wed 08:24:18 PM 34.8489 -81.3964 46° Northeast 391 450 11,800 -1,000 Descending Atlanta Center
Wed 08:25:20 PM 34.9242 -81.3003 46° Northeast 385 443 9,900 -844 Descending Atlanta Center
Wed 08:26:26 PM 35.0011 -81.1989 47° Northeast 376 433 10,000 -100 Climbing Atlanta Center
Wed 08:27:20 PM 35.0536 -81.1286 48° Northeast 338 389 9,700 -492 Descending Atlanta Center
Wed 08:28:28 PM 35.1292 -81.0625 36° Northeast 276 318 9,000 -698 Descending Atlanta Center
Wed 08:29:29 PM 35.2003 -81.0675 357° North 245 282 8,200 -984 Descending Atlanta Center
Wed 08:30:30 PM 35.2589 -81.0756 354° North 193 222 7,000 -1,426 Descending Atlanta Center
Wed 08:31:31 PM 35.3175 -81.0836 354° North 207 238 5,300 -1,438 Descending Atlanta Center
Wed 08:32:31 PM 35.3639 -81.1050 339° North 197 227 4,100 -1,083 Descending Atlanta Center
Wed 08:33:44 PM 35.3497 -81.0289 103° East 195 224 2,900 -851 Descending Atlanta Center
Wed 08:34:45 PM 35.3150 -80.9819 132° Southeast 177 204 2,200 -689 Descending Atlanta Center
Wed 08:35:46 PM 35.2669 -80.9736 172° South 169 194 1,500 -689 Descending Atlanta Center
Wed 08:37:00 PM 35.2137 -80.9491 158° South  Level Estimated

Login

Don't have an account? Register now (free) for customized features, flight alerts, and more!